^^

Nearby METAR Reports

 

EGAC - Belfast Harbour, United Kingdom
Distance from station: W 8mi, 13km
Updated: 06/04/2020 03:50
Mostly cloudy
Mostly cloudy
 Wind from SSW
Wind: SSW 21 mph , 33 km/h
Temperature: 10°C
Wind Chill: 6°C
Dew Point: 7°C
Humidity: 82%
Barometer: 1000 hPa
Clouds: Mostly cloudy
Visibility: 6 miles , 10 km
Cloud details: Mostly cloudy 914 m
2020/04/06 02:50 EGAC 060250Z AUTO 20018KT 9999 BKN030/// 10/07 Q1000
EGAA - Belfast/Aldergro, United Kingdom
Distance from station: W 22mi, 35km
Updated: 06/04/2020 03:50
Overcast
Overcast
 Wind from SSW
Wind: SSW 14 mph , 22 km/h
Temperature: 10°C
Wind Chill: 7°C
Dew Point: 7°C
Humidity: 82%
Barometer: 999 hPa
Clouds: Overcast
Visibility: 6 miles , 10 km
Cloud details: Partly cloudy 610 m
Mostly cloudy 823 m
Overcast 975 m
2020/04/06 02:50 EGAA 060250Z AUTO 21012KT 9999 SCT020/// BKN027/// OVC032/// 10/07 Q0999
 
EGNS - Isle Of Man/Rona, United Kingdom
Distance from station: SE 57mi, 91km
Updated: 06/04/2020 03:50
Clear
Clear
 Wind from SSW
Wind: SSW 18 mph , 30 km/h
Temperature: 9°C
Wind Chill: 5°C
Dew Point: 8°C
Humidity: 94%
Barometer: 1002 hPa
Summary: Clear
Visibility: greater than 7 miles , 10 km
2020/04/06 02:50 EGNS 060250Z 20016KT CAVOK 09/08 Q1002
EGPK - Prestwick(Civ/Na, United Kingdom
Distance from station: NE 74mi, 119km
Updated: 06/04/2020 03:50
Light rain, Partly cloudy
Light rain, Partly cloudy
 Wind from S
Wind: S 16 mph , 26 km/h
Temperature: 11°C
Dew Point: 8°C
Humidity: 82%
Barometer: 1000 hPa
Summary: Light rain
Clouds: Partly cloudy
Visibility: 6 miles , 9 km
Cloud details: Partly cloudy 549 m
2020/04/06 02:50 EGPK 060250Z 18014KT 9000 -RA SCT018 11/08 Q1000
 
EIDW - Dublin Airport, Ireland
Distance from station: SSW 87mi, 141km
Updated: 06/04/2020 04:00
Mostly cloudy
Mostly cloudy
 Wind from SW
Wind: SW 16 mph , 26 km/h, Gust: 31 mph , 50 km/h
Temperature: 9°C
Wind Chill: 6°C
Dew Point: 6°C
Humidity: 82%
Barometer: 1002 hPa
Clouds: Mostly cloudy
Visibility: 6 miles , 10 km
Cloud details: Few Clouds 732 m
Mostly cloudy 1097 m
2020/04/06 03:00 EIDW 060300Z 22014G27KT 190V260 9999 FEW024 BKN036 09/06 Q1002 NOSIG
EGPF - Glasgow Airport, United Kingdom
Distance from station: NNE 98mi, 158km
Updated: 06/04/2020 03:50
Few Clouds
Few Clouds
 Wind from SSW
Wind: SSW 24 mph , 39 km/h
Temperature: 11°C
Dew Point: 9°C
Humidity: 88%
Barometer: 998 hPa
Clouds: Few Clouds
Visibility: 6 miles , 10 km
Cloud details: Few Clouds 853 m
2020/04/06 02:50 EGPF 060250Z AUTO 20021KT 9999 FEW028 11/09 Q0998